Time;durP1;ratioP1;P1;durP2;ratioP2;P2;SDS_P1;SDS_P2;PMS_P1;PMS_P2;Temp;Humidity;BMP_temperature;BMP_pressure;BME280_temperature;BME280_humidity;BME280_pressure;Samples;Min_cycle;Max_cycle;Signal;HPM_P1;HPM_P2
2023/07/29 00:00:57;;;;;;;18.67;6.10;;;;;;;;;;5090084;28;20106;-77
2023/07/29 00:03:23;;;;;;;19.75;6.22;;;19.60;99.90;;;;;;5073223;28;20032;-77
2023/07/29 00:05:49;;;;;;;16.85;6.05;;;;;;;;;;5073106;28;20036;-77
2023/07/29 00:08:15;;;;;;;20.88;6.43;;;;;;;;;;5073064;28;20476;-77
2023/07/29 00:10:41;;;;;;;20.13;6.80;;;;;;;;;;5072990;28;20051;-77
2023/07/29 00:13:07;;;;;;;21.77;6.60;;;19.60;99.90;;;;;;5073001;28;20051;-77
2023/07/29 00:15:33;;;;;;;37.67;15.38;;;18.70;99.90;;;;;;5073288;28;20432;-77
2023/07/29 00:17:59;;;;;;;63.15;36.65;;;;;;;;;;5056177;28;20055;-77
2023/07/29 00:20:25;;;;;;;82.38;43.55;;;19.30;99.90;;;;;;5073105;28;20363;-77
2023/07/29 00:22:54;;;;;;;66.70;35.47;;;;;;;;;;5056353;28;20040;-77
2023/07/29 00:25:20;;;;;;;70.18;36.22;;;19.10;99.90;;;;;;5072981;28;20067;-77
2023/07/29 00:27:46;;;;;;;34.50;14.70;;;20.00;99.90;;;;;;5056056;28;20040;-76
2023/07/29 00:30:12;;;;;;;33.20;15.00;;;;;;;;;;5038583;28;20051;-77
2023/07/29 00:32:38;;;;;;;27.58;11.80;;;19.30;99.90;;;;;;5072701;28;20394;-77
2023/07/29 00:35:04;;;;;;;22.83;9.07;;;18.30;99.90;;;;;;5072564;28;20052;-77
2023/07/29 00:37:30;;;;;;;27.13;10.48;;;19.90;99.90;;;;;;5055767;28;20090;-77
2023/07/29 00:39:56;;;;;;;22.40;8.73;;;19.90;99.90;;;;;;5072446;28;20036;-77
2023/07/29 00:42:22;;;;;;;18.63;7.65;;;;;;;;;;5055785;28;20147;-76
2023/07/29 00:44:48;;;;;;;16.60;8.10;;;;;;;;;;5072257;28;20501;-77
2023/07/29 00:47:16;;;;;;;19.70;7.80;;;19.40;99.90;;;;;;5072296;28;20044;-77
2023/07/29 00:49:45;;;;;;;20.10;7.32;;;19.90;99.90;;;;;;5055810;28;20036;-77
2023/07/29 00:52:12;;;;;;;18.17;7.68;;;19.00;99.90;;;;;;5072239;28;20040;-77
2023/07/29 00:54:42;;;;;;;22.40;7.63;;;20.20;99.90;;;;;;5055591;28;20040;-77
2023/07/29 00:57:10;;;;;;;20.60;7.05;;;18.90;99.90;;;;;;5071845;28;20049;-77
2023/07/29 00:59:36;;;;;;;16.35;6.88;;;20.20;99.90;;;;;;5072390;28;20393;-77
2023/07/29 01:02:02;;;;;;;19.13;7.10;;;;;;;;;;5072035;28;20072;-77
2023/07/29 01:04:28;;;;;;;16.67;7.55;;;;;;;;;;5072278;28;20037;-76
2023/07/29 01:07:07;;;;;;;24.15;8.15;;;19.10;99.90;;;;;;5055380;28;20078;-77
2023/07/29 01:09:50;;;;;;;18.23;7.95;;;19.20;99.90;;;;;;5072035;28;20044;-77
2023/07/29 01:12:24;;;;;;;17.48;7.85;;;19.20;99.90;;;;;;5072229;28;20048;-77
2023/07/29 01:15:14;;;;;;;25.77;9.68;;;19.10;99.90;;;;;;5072155;28;20387;-77
2023/07/29 01:18:02;;;;;;;17.95;8.13;;;19.10;99.90;;;;;;5071979;28;20037;-77
2023/07/29 01:20:33;;;;;;;19.58;8.88;;;19.80;99.90;;;;;;5071966;28;20037;-77
2023/07/29 01:22:58;;;;;;;19.08;9.38;;;18.70;99.90;;;;;;5072187;28;20079;-77
2023/07/29 01:25:24;;;;;;;21.88;8.75;;;17.90;99.90;;;;;;5072088;28;20494;-77
2023/07/29 01:27:51;;;;;;;25.08;10.05;;;19.90;99.90;;;;;;5055377;28;20040;-77
2023/07/29 01:30:18;;;;;;;24.15;10.25;;;19.60;99.90;;;;;;5072135;28;20041;-77
2023/07/29 01:32:54;;;;;;;24.02;9.63;;;18.60;99.90;;;;;;5071922;28;20390;-76
2023/07/29 01:35:32;;;;;;;18.90;8.93;;;20.10;99.90;;;;;;5071477;28;20041;-76
2023/07/29 01:38:14;;;;;;;23.75;9.80;;;19.20;99.90;;;;;;5071540;28;20060;-76
2023/07/29 01:40:40;;;;;;;21.45;9.25;;;19.10;99.90;;;;;;5057464;28;20048;-76
2023/07/29 01:43:10;;;;;;;19.35;7.75;;;;;;;;;;5062114;28;20039;-76
2023/07/29 01:45:38;;;;;;;23.38;9.65;;;;;;;;;;5078133;28;20041;-76
2023/07/29 01:48:07;;;;;;;24.17;9.95;;;19.50;99.90;;;;;;5078610;28;20108;-77
2023/07/29 01:50:36;;;;;;;22.80;10.27;;;18.00;99.90;;;;;;5078435;28;20041;-76
2023/07/29 01:53:02;;;;;;;28.58;9.35;;;19.80;99.90;;;;;;5078082;28;20037;-77
2023/07/29 01:55:28;;;;;;;24.52;10.80;;;;;;;;;;5044921;28;20040;-77
2023/07/29 01:57:54;;;;;;;24.95;8.95;;;;;;;;;;5077987;28;20109;-76
2023/07/29 02:00:20;;;;;;;19.67;9.38;;;;;;;;;;5078004;28;20056;-76
2023/07/29 02:02:46;;;;;;;25.90;9.40;;;;;;;;;;5078306;28;20394;-76
2023/07/29 02:05:12;;;;;;;19.92;8.98;;;18.00;99.90;;;;;;5061796;28;20056;-76
2023/07/29 02:07:38;;;;;;;23.98;7.78;;;18.60;99.90;;;;;;5078017;28;20486;-76
2023/07/29 02:10:04;;;;;;;21.77;7.43;;;19.70;99.90;;;;;;5078146;28;20052;-76
2023/07/29 02:12:30;;;;;;;22.75;7.47;;;;;;;;;;5078181;28;20450;-76
2023/07/29 02:14:56;;;;;;;17.67;6.70;;;;;;;;;;5078337;28;20090;-76
2023/07/29 02:17:22;;;;;;;16.13;7.40;;;;;;;;;;5077861;28;20040;-76
2023/07/29 02:19:48;;;;;;;14.98;7.22;;;;;;;;;;5077961;28;20458;-76
2023/07/29 02:22:16;;;;;;;21.17;6.95;;;17.80;99.90;;;;;;5061609;28;20467;-76
2023/07/29 02:24:42;;;;;;;23.00;6.95;;;;;;;;;;5077902;28;20072;-76
2023/07/29 02:27:08;;;;;;;14.85;6.35;;;19.10;99.90;;;;;;5078312;28;20075;-76
2023/07/29 02:29:34;;;;;;;17.77;7.07;;;;;;;;;;5094748;28;20524;-72
2023/07/29 02:32:00;;;;;;;22.60;8.05;;;18.60;99.90;;;;;;5077776;28;20052;-72
2023/07/29 02:34:26;;;;;;;21.85;6.95;;;17.60;99.90;;;;;;5061240;28;20443;-72
2023/07/29 02:36:52;;;;;;;19.67;7.65;;;;;;;;;;5077787;28;20036;-72
2023/07/29 02:39:18;;;;;;;20.15;7.70;;;19.40;99.90;;;;;;5077719;28;20119;-72
2023/07/29 02:41:43;;;;;;;18.70;7.32;;;17.60;99.90;;;;;;5077977;28;20123;-71
2023/07/29 02:44:09;;;;;;;16.98;7.97;;;17.70;99.90;;;;;;5078078;28;20044;-72
2023/07/29 02:46:35;;;;;;;22.65;8.25;;;;;;;;;;5078034;28;20071;-72
2023/07/29 02:49:04;;;;;;;21.42;8.52;;;18.60;99.90;;;;;;5077676;28;20049;-72
2023/07/29 02:51:30;;;;;;;19.90;8.55;;;19.20;99.90;;;;;;5077321;28;20044;-72
2023/07/29 02:53:57;;;;;;;17.85;7.88;;;;;;;;;;5073901;28;20123;-71
2023/07/29 02:56:23;;;;;;;19.75;7.63;;;;;;;;;;5074598;28;20127;-72
2023/07/29 02:58:51;;;;;;;17.75;8.00;;;;;;;;;;5074776;28;20045;-71
2023/07/29 03:01:17;;;;;;;19.17;7.30;;;19.20;99.90;;;;;;5074302;28;20041;-72
2023/07/29 03:03:43;;;;;;;25.92;7.00;;;19.30;99.90;;;;;;5074224;28;20041;-71
2023/07/29 03:06:11;;;;;;;19.27;6.90;;;18.40;99.90;;;;;;5074064;28;20127;-72
2023/07/29 03:08:37;;;;;;;23.33;6.85;;;19.50;99.90;;;;;;5074243;28;20040;-71
2023/07/29 03:11:07;;;;;;;21.70;6.82;;;18.80;99.90;;;;;;5057823;28;20046;-71
2023/07/29 03:13:33;;;;;;;25.10;7.53;;;;;;;;;;5057574;28;20051;-72
2023/07/29 03:16:05;;;;;;;16.52;6.18;;;18.00;99.90;;;;;;5074054;28;20052;-71
2023/07/29 03:18:31;;;;;;;16.13;5.88;;;;;;;;;;5074310;28;20041;-71
2023/07/29 03:20:57;;;;;;;20.45;5.90;;;18.90;99.90;;;;;;5074115;28;20048;-72
2023/07/29 03:23:23;;;;;;;19.17;6.70;;;19.30;99.90;;;;;;5074339;28;20036;-72
2023/07/29 03:25:51;;;;;;;17.50;5.70;;;18.20;99.90;;;;;;5073869;28;20552;-72
2023/07/29 03:28:17;;;;;;;24.63;6.03;;;17.50;99.90;;;;;;5073893;28;20041;-71
2023/07/29 03:30:43;;;;;;;19.40;5.68;;;;;;;;;;5040609;28;20036;-72
2023/07/29 03:33:08;;;;;;;18.13;6.60;;;19.20;99.90;;;;;;5073658;28;20521;-71
2023/07/29 03:35:34;;;;;;;17.15;6.00;;;;;;;;;;5056999;28;20041;-71
2023/07/29 03:38:00;;;;;;;19.58;5.95;;;19.30;99.90;;;;;;5073661;28;20037;-72
2023/07/29 03:40:26;;;;;;;21.42;6.80;;;;;;;;;;5057153;28;20043;-72
2023/07/29 03:42:52;;;;;;;20.02;6.00;;;18.30;99.90;;;;;;5056866;28;20119;-72
2023/07/29 03:45:18;;;;;;;19.75;6.28;;;;;;;;;;5073556;28;20120;-72
2023/07/29 03:47:44;;;;;;;25.52;5.72;;;;;;;;;;5073500;28;20504;-72
2023/07/29 03:50:10;;;;;;;18.48;5.90;;;;;;;;;;5040567;28;20110;-72
2023/07/29 03:52:36;;;;;;;22.42;6.18;;;;;;;;;;5073313;28;20040;-72
2023/07/29 03:55:02;;;;;;;21.25;5.63;;;18.60;99.90;;;;;;5073109;28;20044;-71
2023/07/29 03:57:28;;;;;;;13.25;4.80;;;19.10;99.90;;;;;;5073101;28;20110;-72
2023/07/29 03:59:54;;;;;;;16.60;5.45;;;17.30;99.90;;;;;;5073252;28;20052;-72
2023/07/29 04:02:20;;;;;;;21.52;6.15;;;18.90;99.90;;;;;;5056511;28;20037;-71
2023/07/29 04:04:48;;;;;;;18.73;5.00;;;;;;;;;;5073106;28;20048;-71
2023/07/29 04:07:14;;;;;;;14.65;4.95;;;18.40;99.90;;;;;;5073070;28;20123;-71
2023/07/29 04:09:40;;;;;;;25.70;6.00;;;;;;;;;;5073206;28;20048;-71
2023/07/29 04:12:06;;;;;;;17.23;5.53;;;18.30;99.90;;;;;;5072991;28;20048;-71
2023/07/29 04:14:31;;;;;;;16.92;5.82;;;19.00;99.90;;;;;;5056410;28;20040;-71
2023/07/29 04:16:58;;;;;;;12.13;5.80;;;;;;;;;;5072804;28;20047;-71
2023/07/29 04:19:24;;;;;;;21.05;5.70;;;;;;;;;;5072758;28;20047;-72
2023/07/29 04:21:50;;;;;;;17.67;5.35;;;19.00;99.90;;;;;;5056063;28;20126;-74
2023/07/29 04:24:17;;;;;;;16.05;5.75;;;;;;;;;;5072598;28;20167;-71
2023/07/29 04:26:43;;;;;;;16.88;5.22;;;;;;;;;;5072773;28;20162;-71
2023/07/29 04:29:09;;;;;;;15.75;5.45;;;18.00;99.90;;;;;;5056524;28;20082;-71
2023/07/29 04:31:35;;;;;;;24.25;5.93;;;;;;;;;;5072646;28;20037;-71
2023/07/29 04:34:02;;;;;;;18.08;5.97;;;;;;;;;;5039347;28;20442;-71
2023/07/29 04:36:28;;;;;;;24.83;5.90;;;17.40;99.90;;;;;;5072452;28;20044;-71
2023/07/29 04:38:54;;;;;;;18.60;5.97;;;;;;;;;;5072401;28;20036;-71
2023/07/29 04:41:19;;;;;;;17.27;6.05;;;18.70;99.90;;;;;;5056023;28;20402;-71
2023/07/29 04:43:46;;;;;;;11.70;5.30;;;;;;;;;;5072302;28;20124;-71
2023/07/29 04:46:12;;;;;;;16.23;5.50;;;;;;;;;;5039261;28;20478;-71
2023/07/29 04:48:38;;;;;;;17.70;4.95;;;;;;;;;;5055961;28;20166;-71
2023/07/29 04:51:03;;;;;;;21.20;5.70;;;17.80;99.90;;;;;;5055582;28;20040;-71
2023/07/29 04:53:29;;;;;;;18.73;5.70;;;;;;;;;;5072168;28;20079;-71
2023/07/29 04:55:55;;;;;;;18.98;5.43;;;;;;;;;;5072332;28;20036;-71
2023/07/29 04:58:22;;;;;;;15.15;5.93;;;18.80;99.90;;;;;;5071849;28;20099;-71
2023/07/29 05:00:48;;;;;;;17.27;5.05;;;;;;;;;;5072057;28;20474;-72
2023/07/29 05:03:14;;;;;;;26.55;5.53;;;;;;;;;;5055768;28;20056;-71
2023/07/29 05:05:40;;;;;;;20.05;5.30;;;;;;;;;;5071795;28;20122;-72
2023/07/29 05:08:06;;;;;;;21.98;5.65;;;;;;;;;;5071886;28;20044;-71
2023/07/29 05:10:32;;;;;;;20.20;5.45;;;;;;;;;;5071928;28;20044;-71
2023/07/29 05:12:58;;;;;;;20.13;5.57;;;18.80;99.90;;;;;;5039044;28;20094;-71
2023/07/29 05:15:24;;;;;;;16.45;5.35;;;;;;;;;;5054611;28;20430;-71
2023/07/29 05:17:50;;;;;;;20.33;5.03;;;;;;;;;;5055027;28;20040;-72
2023/07/29 05:20:16;;;;;;;21.80;5.03;;;;;;;;;;5071708;28;20509;-71
2023/07/29 05:22:42;;;;;;;16.58;5.68;;;18.80;99.90;;;;;;5071648;28;20425;-71
2023/07/29 05:25:08;;;;;;;17.55;5.43;;;;;;;;;;5055149;28;20040;-71
2023/07/29 05:27:34;;;;;;;20.48;5.25;;;18.50;99.90;;;;;;5071808;28;20055;-71
2023/07/29 05:30:00;;;;;;;21.00;5.43;;;;;;;;;;5071935;28;20044;-71
2023/07/29 05:32:25;;;;;;;16.20;6.00;;;18.20;99.90;;;;;;5054908;28;20123;-71
2023/07/29 05:34:51;;;;;;;27.67;5.78;;;;;;;;;;5071661;28;20159;-71
2023/07/29 05:37:18;;;;;;;29.27;6.00;;;;;;;;;;5071695;28;20090;-71
2023/07/29 05:39:44;;;;;;;16.58;5.30;;;;;;;;;;5071672;28;20402;-71
2023/07/29 05:42:10;;;;;;;18.20;5.72;;;;;;;;;;5071822;28;20165;-71
2023/07/29 05:44:36;;;;;;;21.35;5.60;;;;;;;;;;5071658;28;20474;-71
2023/07/29 05:47:02;;;;;;;19.42;5.70;;;;;;;;;;5071661;28;20041;-71
2023/07/29 05:49:28;;;;;;;33.50;7.38;;;19.10;99.90;;;;;;5055002;28;20127;-71
2023/07/29 05:51:54;;;;;;;25.52;6.60;;;;;;;;;;5071711;28;20072;-71
2023/07/29 05:54:20;;;;;;;25.38;6.57;;;;;;;;;;5071412;28;20048;-71
2023/07/29 05:56:46;;;;;;;25.02;6.15;;;18.80;99.90;;;;;;5071396;28;20476;-71
2023/07/29 05:59:12;;;;;;;21.77;6.00;;;19.10;99.90;;;;;;5054769;28;20079;-71
2023/07/29 06:01:38;;;;;;;21.10;6.13;;;;;;;;;;5071256;28;20078;-71
2023/07/29 06:04:03;;;;;;;23.38;6.68;;;19.30;99.90;;;;;;5071421;28;20070;-71
2023/07/29 06:06:30;;;;;;;18.85;6.47;;;;;;;;;;5071407;28;20379;-71
2023/07/29 06:08:55;;;;;;;19.85;6.50;;;19.10;99.90;;;;;;5054733;28;20040;-71
2023/07/29 06:11:22;;;;;;;20.00;6.15;;;;;;;;;;5088297;28;20165;-72
2023/07/29 06:13:47;;;;;;;20.88;6.63;;;17.90;99.90;;;;;;5071468;28;20128;-72
2023/07/29 06:16:14;;;;;;;25.77;6.60;;;;;;;;;;5054718;28;20190;-72
2023/07/29 06:18:40;;;;;;;26.52;6.57;;;;;;;;;;5071147;28;20102;-71
2023/07/29 06:21:07;;;;;;;26.15;6.60;;;17.60;99.90;;;;;;5071345;28;20071;-72
2023/07/29 06:23:34;;;;;;;26.42;6.53;;;18.50;99.90;;;;;;5055009;28;20036;-72
2023/07/29 06:26:00;;;;;;;25.45;6.07;;;19.50;99.90;;;;;;5071275;28;20055;-72
2023/07/29 06:28:26;;;;;;;28.15;6.43;;;;;;;;;;5056751;28;20093;-71
2023/07/29 06:30:53;;;;;;;24.45;7.68;;;;;;;;;;5074958;28;20068;-72
2023/07/29 06:33:19;;;;;;;23.25;6.32;;;19.70;99.90;;;;;;5075073;28;20044;-71
2023/07/29 06:35:45;;;;;;;26.23;6.18;;;;;;;;;;5058233;28;20474;-71
2023/07/29 06:38:10;;;;;;;25.77;7.03;;;19.80;99.90;;;;;;5057914;28;20055;-72
2023/07/29 06:40:37;;;;;;;24.30;6.32;;;;;;;;;;5074549;28;20120;-71
2023/07/29 06:43:02;;;;;;;33.50;6.95;;;17.90;99.90;;;;;;5074595;28;20040;-72
2023/07/29 06:45:28;;;;;;;24.00;6.38;;;;;;;;;;5074629;28;20036;-72
2023/07/29 06:47:54;;;;;;;31.20;7.55;;;19.10;99.90;;;;;;5074340;28;20049;-71
2023/07/29 06:50:20;;;;;;;19.73;6.10;;;;;;;;;;5074376;28;20106;-72
2023/07/29 06:52:46;;;;;;;24.40;6.65;;;;;;;;;;5074352;28;20036;-72
2023/07/29 06:55:12;;;;;;;25.58;6.57;;;;;;;;;;5074376;28;20055;-72
2023/07/29 06:57:38;;;;;;;25.20;7.15;;;19.90;99.90;;;;;;5074177;28;20577;-71
2023/07/29 07:00:05;;;;;;;23.35;6.97;;;19.40;99.90;;;;;;5074199;28;20127;-72
2023/07/29 07:02:30;;;;;;;26.17;6.93;;;18.20;99.90;;;;;;5057533;28;20032;-71
2023/07/29 07:04:56;;;;;;;30.50;6.70;;;;;;;;;;5090955;28;20040;-72
2023/07/29 07:07:22;;;;;;;30.83;7.07;;;18.30;99.90;;;;;;5074326;28;20036;-72
2023/07/29 07:09:48;;;;;;;24.52;7.75;;;;;;;;;;5074179;28;20055;-72
2023/07/29 07:12:14;;;;;;;24.77;6.30;;;;;;;;;;5057541;28;20098;-72
2023/07/29 07:14:40;;;;;;;16.15;6.13;;;19.80;99.90;;;;;;5074138;28;20056;-72
2023/07/29 07:17:06;;;;;;;24.98;6.53;;;18.80;99.90;;;;;;5057651;28;20048;-71
2023/07/29 07:19:32;;;;;;;20.75;5.50;;;;;;;;;;5074412;28;20539;-72
2023/07/29 07:21:58;;;;;;;22.42;6.40;;;;;;;;;;5074127;28;20047;-71
2023/07/29 07:24:23;;;;;;;20.70;5.95;;;18.20;99.90;;;;;;5073831;28;20043;-71
2023/07/29 07:26:50;;;;;;;26.85;5.78;;;;;;;;;;5057388;28;20045;-72
2023/07/29 07:29:16;;;;;;;27.65;6.22;;;19.80;99.90;;;;;;5057697;28;20044;-71
2023/07/29 07:31:53;;;;;;;23.52;6.22;;;19.20;99.90;;;;;;5073963;28;20127;-71
2023/07/29 07:34:20;;;;;;;19.83;6.00;;;19.30;99.90;;;;;;5073593;28;20044;-72
2023/07/29 07:36:46;;;;;;;21.90;5.72;;;19.20;99.90;;;;;;5073840;28;20049;-71
2023/07/29 07:39:12;;;;;;;14.20;5.57;;;;;;;;;;5073239;28;20366;-72
2023/07/29 07:41:38;;;;;;;22.35;5.45;;;18.30;99.90;;;;;;5057340;28;20379;-72
2023/07/29 07:44:04;;;;;;;21.45;5.72;;;;;;;;;;5057167;28;20059;-72
2023/07/29 07:46:30;;;;;;;23.70;5.78;;;;;;;;;;5056807;28;20040;-72
2023/07/29 07:48:55;;;;;;;25.50;5.45;;;19.10;99.90;;;;;;5073466;28;20044;-72
2023/07/29 07:51:22;;;;;;;26.27;6.25;;;;;;;;;;5073687;28;20052;-72
2023/07/29 07:53:48;;;;;;;21.38;5.10;;;19.40;99.90;;;;;;5056720;28;20044;-72
2023/07/29 07:56:15;;;;;;;24.45;6.03;;;20.40;99.90;;;;;;5073225;28;20040;-72
2023/07/29 07:58:42;;;;;;;19.20;5.28;;;19.20;99.90;;;;;;5072982;28;20048;-72
2023/07/29 08:01:09;;;;;;;20.95;5.57;;;19.50;99.90;;;;;;5073238;28;20037;-72
2023/07/29 08:03:35;;;;;;;16.27;5.38;;;19.40;99.90;;;;;;5073179;28;20115;-73
2023/07/29 08:06:02;;;;;;;20.80;5.53;;;19.60;99.90;;;;;;5073302;28;20045;-72
2023/07/29 08:08:28;;;;;;;19.38;4.95;;;19.60;99.90;;;;;;5073171;28;20045;-73
2023/07/29 08:10:56;;;;;;;21.63;5.22;;;19.70;99.90;;;;;;5072997;28;20074;-72
2023/07/29 08:13:22;;;;;;;26.70;5.32;;;19.00;99.90;;;;;;5072765;28;20051;-72
2023/07/29 08:15:50;;;;;;;18.73;5.60;;;20.20;99.90;;;;;;5073041;28;20127;-72
2023/07/29 08:18:17;;;;;;;21.58;5.45;;;;;;;;;;5072893;28;20470;-72
2023/07/29 08:21:03;;;;;;;18.52;5.22;;;20.00;99.90;;;;;;5056344;28;20040;-72
2023/07/29 08:23:30;;;;;;;21.63;5.07;;;19.90;99.90;;;;;;5073101;28;20082;-72
2023/07/29 08:26:01;;;;;;;12.55;4.10;;;20.20;99.90;;;;;;5056051;28;20032;-72
2023/07/29 08:28:28;;;;;;;23.63;4.90;;;20.50;99.90;;;;;;5072548;28;20044;-72
2023/07/29 08:30:54;;;;;;;12.07;3.97;;;;;;;;;;5072762;28;20056;-73
2023/07/29 08:33:20;;;;;;;11.15;4.05;;;;;;;;;;5055692;28;20048;-72
2023/07/29 08:35:46;;;;;;;16.48;5.25;;;;;;;;;;5072555;28;20037;-72
2023/07/29 08:38:12;;;;;;;20.55;4.68;;;20.30;99.90;;;;;;5072177;28;20047;-72
2023/07/29 08:40:53;;;;;;;18.52;4.13;;;19.80;99.90;;;;;;5055722;28;20040;-72
2023/07/29 08:43:22;;;;;;;16.85;4.10;;;20.50;99.90;;;;;;5072686;28;20374;-72
2023/07/29 08:45:48;;;;;;;12.23;4.10;;;;;;;;;;5055904;28;20049;-72
2023/07/29 08:48:19;;;;;;;14.35;3.90;;;20.10;99.90;;;;;;5072358;28;20037;-72
2023/07/29 08:50:45;;;;;;;14.37;4.47;;;;;;;;;;5071447;28;20048;-72
2023/07/29 08:53:12;;;;;;;13.30;4.13;;;;;;;;;;5072178;28;20048;-72
2023/07/29 08:55:39;;;;;;;18.80;5.20;;;20.10;99.90;;;;;;5072380;28;20123;-72
2023/07/29 08:58:05;;;;;;;25.08;5.30;;;21.00;99.90;;;;;;5071957;28;20048;-73
2023/07/29 09:00:32;;;;;;;19.85;5.10;;;21.10;99.90;;;;;;5055540;28;20048;-72
2023/07/29 09:03:02;;;;;;;14.27;4.45;;;20.90;99.90;;;;;;5072059;28;20044;-72
2023/07/29 09:05:28;;;;;;;17.65;4.30;;;;;;;;;;5072344;28;20040;-72
2023/07/29 09:07:55;;;;;;;14.80;4.93;;;20.90;99.90;;;;;;5055339;28;20119;-72
2023/07/29 09:10:26;;;;;;;10.45;3.63;;;19.10;99.90;;;;;;5072104;28;20109;-72
2023/07/29 09:12:53;;;;;;;15.60;3.70;;;20.70;99.90;;;;;;5071839;28;20040;-72
2023/07/29 09:15:29;;;;;;;16.20;4.28;;;19.90;99.90;;;;;;5071822;28;20131;-72
2023/07/29 09:17:59;;;;;;;13.18;4.03;;;20.20;99.90;;;;;;5071726;28;20049;-72
2023/07/29 09:20:28;;;;;;;16.45;4.45;;;20.20;99.90;;;;;;5071830;28;20040;-72
2023/07/29 09:23:02;;;;;;;26.70;4.25;;;20.70;99.90;;;;;;5071631;28;20036;-72
2023/07/29 09:25:29;;;;;;;16.52;4.03;;;20.60;99.90;;;;;;5071756;28;20036;-72
2023/07/29 09:28:02;;;;;;;18.65;4.30;;;20.30;99.90;;;;;;5072123;28;20045;-72
2023/07/29 09:30:28;;;;;;;12.73;4.15;;;;;;;;;;5071783;28;20127;-72
2023/07/29 09:32:58;;;;;;;14.80;3.95;;;20.70;99.90;;;;;;5071510;28;20040;-72
2023/07/29 09:35:26;;;;;;;19.08;4.78;;;19.80;99.90;;;;;;5071722;28;20131;-72
2023/07/29 09:37:52;;;;;;;14.07;4.10;;;;;;;;;;5071503;28;20048;-72
2023/07/29 09:40:18;;;;;;;14.60;4.05;;;21.50;99.90;;;;;;5071809;28;20072;-72
2023/07/29 09:42:52;;;;;;;15.35;4.40;;;21.40;99.90;;;;;;5071791;28;20040;-72
2023/07/29 09:45:25;;;;;;;13.13;4.07;;;20.20;99.90;;;;;;5054885;28;20044;-72
2023/07/29 09:47:56;;;;;;;14.43;4.20;;;20.80;99.90;;;;;;5071547;28;20044;-72
2023/07/29 09:50:26;;;;;;;15.70;3.72;;;20.90;99.90;;;;;;5071495;28;20051;-72
2023/07/29 09:52:53;;;;;;;7.60;3.13;;;20.10;99.90;;;;;;5054692;28;20426;-72
2023/07/29 09:55:20;;;;;;;13.52;3.30;;;;;;;;;;5071311;28;20045;-72
2023/07/29 09:57:46;;;;;;;14.65;4.22;;;;;;;;;;5071203;28;20053;-72
2023/07/29 10:00:13;;;;;;;13.27;3.10;;;20.70;99.90;;;;;;5054688;28;20528;-73
2023/07/29 10:02:43;;;;;;;12.18;3.25;;;21.20;99.90;;;;;;5057548;28;20119;-72
2023/07/29 10:05:10;;;;;;;11.02;2.95;;;21.60;99.90;;;;;;5042314;28;20401;-72
2023/07/29 10:07:40;;;;;;;8.93;3.45;;;22.30;99.90;;;;;;5075811;28;20102;-71
2023/07/29 10:10:07;;;;;;;9.25;3.33;;;22.30;99.90;;;;;;5075283;28;20045;-72
2023/07/29 10:12:34;;;;;;;8.63;3.13;;;21.70;99.90;;;;;;5075256;28;20048;-72
2023/07/29 10:15:03;;;;;;;8.80;3.55;;;21.40;99.90;;;;;;5075478;28;20075;-73
2023/07/29 10:17:31;;;;;;;10.27;2.97;;;21.90;99.90;;;;;;5058518;28;20076;-72
2023/07/29 10:19:59;;;;;;;6.93;2.80;;;21.30;99.90;;;;;;5058485;28;20486;-72
2023/07/29 10:22:29;;;;;;;14.18;3.33;;;22.50;99.90;;;;;;5075328;28;20331;-72
2023/07/29 10:24:59;;;;;;;12.25;3.15;;;22.00;99.90;;;;;;5058341;28;20490;-71
2023/07/29 10:27:27;;;;;;;6.85;2.80;;;21.40;99.90;;;;;;5075300;28;20040;-71
2023/07/29 10:29:55;;;;;;;10.55;2.50;;;23.00;99.90;;;;;;5075184;28;20128;-72
2023/07/29 10:32:24;;;;;;;4.78;2.70;;;22.40;99.90;;;;;;5075048;28;20041;-72
2023/07/29 10:34:50;;;;;;;7.78;2.35;;;23.00;99.90;;;;;;5074750;28;20047;-72
2023/07/29 10:37:17;;;;;;;11.52;2.30;;;21.70;99.90;;;;;;5074801;28;20119;-72
2023/07/29 10:39:53;;;;;;;8.30;3.05;;;22.40;99.90;;;;;;5058250;28;20044;-72
2023/07/29 10:42:20;;;;;;;8.95;3.20;;;;;;;;;;5074707;28;20063;-76
2023/07/29 10:44:49;;;;;;;8.68;2.92;;;22.10;99.90;;;;;;5058009;28;20040;-76
2023/07/29 10:47:17;;;;;;;6.63;2.60;;;22.10;98.90;;;;;;5074439;28;20047;-76
2023/07/29 10:49:52;;;;;;;12.68;3.30;;;22.40;99.90;;;;;;5074337;28;20528;-76
2023/07/29 10:52:41;;;;;;;10.30;3.30;;;23.00;99.90;;;;;;5074710;28;20494;-76
2023/07/29 10:55:28;;;;;;;9.43;3.35;;;21.60;99.90;;;;;;5074485;28;20494;-76
2023/07/29 10:58:05;;;;;;;14.43;3.78;;;21.60;99.90;;;;;;5057419;28;20105;-76
2023/07/29 11:00:32;;;;;;;9.85;3.50;;;22.40;99.90;;;;;;5074473;28;20555;-76
2023/07/29 11:03:04;;;;;;;10.23;3.70;;;21.40;99.90;;;;;;5074411;28;20072;-76
2023/07/29 11:05:45;;;;;;;10.05;3.80;;;22.20;99.90;;;;;;5074559;28;20059;-75
2023/07/29 11:08:37;;;;;;;17.90;3.90;;;21.40;99.10;;;;;;5074192;28;20048;-75
2023/07/29 11:11:06;;;;;;;9.35;4.03;;;21.30;99.60;;;;;;5069563;28;20091;-76
2023/07/29 11:13:37;;;;;;;17.20;4.68;;;21.30;99.90;;;;;;5073347;28;20051;-76
2023/07/29 11:16:03;;;;;;;9.88;3.92;;;19.60;99.90;;;;;;5074030;28;20059;-75
2023/07/29 11:18:36;;;;;;;9.98;3.63;;;20.40;99.90;;;;;;5074089;28;20127;-75
2023/07/29 11:21:03;;;;;;;10.27;3.38;;;21.30;99.90;;;;;;5074225;28;20047;-75
2023/07/29 11:23:34;;;;;;;10.73;3.83;;;20.90;99.90;;;;;;5074245;28;20439;-75
2023/07/29 11:26:01;;;;;;;12.73;4.03;;;20.80;99.90;;;;;;5057402;28;20052;-76
2023/07/29 11:28:27;;;;;;;11.57;3.88;;;20.90;99.90;;;;;;5074112;28;20047;-76
2023/07/29 11:30:57;;;;;;;13.52;3.70;;;21.30;99.90;;;;;;5074112;28;20402;-76
2023/07/29 11:33:27;;;;;;;16.77;4.03;;;20.90;99.90;;;;;;5056961;28;20141;-76
2023/07/29 11:35:54;;;;;;;11.77;3.17;;;22.40;99.90;;;;;;5073818;28;20402;-76
2023/07/29 11:38:21;;;;;;;12.25;3.40;;;21.20;99.90;;;;;;5073823;28;20048;-76
2023/07/29 11:41:00;;;;;;;8.50;3.67;;;22.70;99.90;;;;;;5073756;28;20047;-75
2023/07/29 11:43:26;;;;;;;6.85;2.50;;;22.30;98.90;;;;;;5057250;28;20036;-76
2023/07/29 11:45:53;;;;;;;8.55;2.90;;;21.40;98.90;;;;;;5073565;28;20070;-76
2023/07/29 11:48:26;;;;;;;10.75;2.90;;;22.80;99.90;;;;;;5073714;28;20071;-76
2023/07/29 11:50:54;;;;;;;9.98;3.10;;;22.70;99.90;;;;;;5073778;28;20044;-76
2023/07/29 11:53:20;;;;;;;10.13;3.08;;;22.70;99.90;;;;;;5073842;28;20109;-76
2023/07/29 11:55:52;;;;;;;15.20;3.25;;;22.00;98.50;;;;;;5040646;28;20433;-76
2023/07/29 11:58:18;;;;;;;16.58;4.13;;;;;;;;;;5073145;28;20052;-76
2023/07/29 12:00:44;;;;;;;18.50;3.60;;;21.40;99.90;;;;;;5073602;28;20056;-76
2023/07/29 12:03:10;;;;;;;12.70;3.72;;;;;;;;;;5073240;28;20482;-75
2023/07/29 12:05:36;;;;;;;12.07;3.83;;;20.90;99.90;;;;;;5073711;28;20389;-76
2023/07/29 12:08:02;;;;;;;15.60;4.05;;;;;;;;;;5073464;28;20127;-76
2023/07/29 12:10:28;;;;;;;12.32;3.83;;;21.50;99.90;;;;;;5073349;28;20037;-76
2023/07/29 12:12:55;;;;;;;13.80;3.30;;;22.10;99.90;;;;;;5073187;28;20180;-76
2023/07/29 12:15:28;;;;;;;13.60;3.28;;;22.20;99.90;;;;;;5056603;28;20368;-75
2023/07/29 12:17:56;;;;;;;13.90;3.58;;;21.80;99.90;;;;;;5056710;28;20047;-76
2023/07/29 12:20:22;;;;;;;17.98;4.10;;;21.20;99.90;;;;;;5073296;28;20041;-76
2023/07/29 12:22:58;;;;;;;9.88;3.13;;;22.30;99.90;;;;;;5056353;28;20040;-75
2023/07/29 12:25:26;;;;;;;16.30;3.70;;;21.70;99.90;;;;;;5072862;28;20386;-76
2023/07/29 12:27:52;;;;;;;13.20;3.40;;;22.20;99.90;;;;;;5072788;28;20076;-76
2023/07/29 12:30:27;;;;;;;18.40;3.90;;;21.50;99.30;;;;;;5072917;28;20114;-76
2023/07/29 12:32:53;;;;;;;13.60;3.70;;;;;;;;;;5072884;28;20494;-76
2023/07/29 12:35:19;;;;;;;15.85;3.70;;;;;;;;;;5072704;28;20045;-76
2023/07/29 12:37:46;;;;;;;15.95;4.75;;;;;;;;;;5072433;28;20037;-76
2023/07/29 12:40:25;;;;;;;18.80;4.70;;;21.20;98.20;;;;;;5039258;28;20045;-76
2023/07/29 12:42:51;;;;;;;15.30;4.40;;;22.50;98.10;;;;;;5072331;28;20055;-75
2023/07/29 12:45:18;;;;;;;19.75;4.18;;;21.90;99.90;;;;;;5072384;28;20116;-76
2023/07/29 12:47:44;;;;;;;13.98;4.05;;;;;;;;;;5072603;28;20071;-76
2023/07/29 12:50:10;;;;;;;16.85;4.05;;;21.40;99.90;;;;;;5072333;28;20075;-76
2023/07/29 12:52:36;;;;;;;13.13;4.00;;;;;;;;;;5072479;28;20083;-76
2023/07/29 12:55:02;;;;;;;18.88;4.90;;;23.20;98.60;;;;;;5072145;28;20106;-76
2023/07/29 12:57:28;;;;;;;23.35;4.72;;;;;;;;;;5072041;28;20057;-76
2023/07/29 12:59:53;;;;;;;12.45;3.63;;;22.20;97.00;;;;;;5072474;28;20109;-76
2023/07/29 13:02:19;;;;;;;11.70;3.88;;;;;;;;;;5055886;28;20420;-76
2023/07/29 13:04:46;;;;;;;20.63;4.05;;;;;;;;;;5072167;28;20072;-76
2023/07/29 13:07:12;;;;;;;13.88;3.83;;;;;;;;;;5071801;28;20052;-76
2023/07/29 13:09:38;;;;;;;11.25;3.92;;;;;;;;;;5071893;28;20079;-76
2023/07/29 13:12:04;;;;;;;14.32;3.78;;;23.00;97.20;;;;;;5038950;28;20501;-76
2023/07/29 13:14:29;;;;;;;12.15;3.80;;;22.80;98.10;;;;;;5055456;28;20040;-75
2023/07/29 13:16:55;;;;;;;10.10;3.65;;;;;;;;;;5055291;28;20098;-76